createdAt,value
2019-02-24T00:01:32.824Z,1.20
2019-02-24T00:04:02.920Z,1.30
2019-02-24T00:06:35.484Z,1.30
2019-02-24T00:09:08.780Z,1.20
2019-02-24T00:11:38.765Z,1.20
2019-02-24T00:14:10.970Z,1.20
2019-02-24T00:16:41.204Z,1.20
2019-02-24T00:19:11.339Z,1.20
2019-02-24T00:21:41.410Z,1.20
2019-02-24T00:24:11.361Z,1.10
2019-02-24T00:26:41.514Z,1.10
2019-02-24T00:29:11.733Z,1.10
2019-02-24T00:31:41.927Z,1.10
2019-02-24T00:34:12.110Z,1.10
2019-02-24T00:36:42.418Z,1.00
2019-02-24T00:39:12.813Z,1.00
2019-02-24T00:41:43.545Z,1.00
2019-02-24T00:44:13.563Z,0.90
2019-02-24T00:46:43.691Z,1.00
2019-02-24T00:49:13.891Z,0.90
2019-02-24T00:51:44.188Z,0.90
2019-02-24T00:54:14.250Z,0.80
2019-02-24T00:56:44.297Z,0.80
2019-02-24T00:59:14.453Z,0.70
2019-02-24T01:01:46.757Z,0.70
2019-02-24T01:04:16.982Z,0.70
2019-02-24T01:13:24.784Z,0.60
2019-02-24T01:15:54.920Z,0.50
2019-02-24T01:18:25.193Z,0.40
2019-02-24T01:20:55.437Z,0.40
2019-02-24T01:23:25.476Z,0.40
2019-02-24T01:25:55.759Z,0.50
2019-02-24T01:28:26.032Z,0.40
2019-02-24T08:05:48.845Z,0.80
2019-02-24T08:08:19.330Z,0.90
2019-02-24T08:10:49.187Z,0.90
2019-02-24T08:13:19.232Z,1.00
2019-02-24T08:15:49.368Z,1.10
2019-02-24T08:18:21.113Z,1.40
2019-02-24T08:20:51.313Z,1.60
2019-02-24T08:23:21.518Z,1.80
2019-02-24T08:25:51.982Z,2.00
2019-02-24T08:28:22.010Z,2.20
2019-02-24T08:30:51.886Z,2.40
2019-02-24T08:33:21.762Z,2.50
2019-02-24T08:35:51.710Z,2.60
2019-02-24T08:38:21.824Z,2.70
2019-02-24T08:40:52.265Z,2.70
2019-02-24T08:43:22.467Z,2.80
2019-02-24T08:45:52.539Z,2.90
2019-02-24T08:48:22.604Z,3.00
2019-02-24T08:50:53.100Z,3.20
2019-02-24T08:53:23.165Z,3.20
2019-02-24T08:55:53.109Z,3.30
2019-02-24T08:58:23.317Z,3.30
2019-02-24T09:00:53.867Z,3.40
2019-02-24T09:03:24.239Z,3.50
2019-02-24T09:05:54.142Z,3.70
2019-02-24T09:08:24.165Z,3.80
2019-02-24T09:10:54.097Z,3.90
2019-02-24T09:13:25.798Z,4.00
2019-02-24T09:15:55.906Z,4.10
2019-02-24T09:18:25.953Z,4.20
2019-02-24T09:20:56.016Z,4.30
2019-02-24T09:23:26.051Z,4.40
2019-02-24T09:25:56.138Z,4.50
2019-02-24T09:28:26.276Z,4.60
2019-02-24T09:31:00.914Z,4.60
2019-02-24T09:33:27.824Z,4.70
2019-02-24T09:35:57.915Z,4.80
2019-02-24T09:38:27.779Z,4.90
2019-02-24T09:40:57.894Z,4.90
2019-02-24T09:43:27.976Z,5.00
2019-02-24T09:45:57.932Z,5.10
2019-02-24T09:48:28.226Z,5.20
2019-02-24T09:50:58.830Z,5.30
2019-02-24T09:53:29.051Z,5.50
2019-02-24T09:55:59.099Z,5.60
2019-02-24T09:58:29.139Z,5.70
2019-02-24T10:00:59.150Z,5.80
2019-02-24T10:03:29.016Z,6.00
2019-02-24T10:05:59.129Z,6.10
2019-02-24T10:08:31.768Z,6.20
2019-02-24T10:11:01.740Z,6.30
2019-02-24T10:13:31.651Z,6.40
2019-02-24T10:16:01.504Z,6.40
2019-02-24T10:18:31.330Z,6.50
2019-02-24T10:21:01.270Z,6.50
2019-02-24T10:23:31.294Z,6.50
2019-02-24T10:26:01.201Z,6.60
2019-02-24T10:28:31.075Z,6.70
2019-02-24T10:31:01.687Z,6.70
2019-02-24T10:33:31.681Z,6.70
2019-02-24T10:36:06.105Z,6.80
2019-02-24T10:38:36.594Z,6.90
2019-02-24T10:41:06.815Z,6.90
2019-02-24T10:43:36.868Z,7.00
2019-02-24T10:46:07.032Z,7.10
2019-02-24T10:48:37.187Z,7.20
2019-02-24T10:51:07.434Z,7.30
2019-02-24T10:53:37.489Z,7.30
2019-02-24T10:56:07.623Z,7.40
2019-02-24T10:58:37.652Z,7.50
2019-02-24T11:01:07.623Z,7.50
2019-02-24T11:03:37.789Z,7.60
2019-02-24T11:06:07.807Z,7.70
2019-02-24T11:08:38.552Z,7.80
2019-02-24T11:11:09.991Z,7.80
2019-02-24T11:13:40.290Z,7.90
2019-02-24T11:16:10.310Z,7.90
2019-02-24T11:18:40.452Z,8.00
2019-02-24T11:21:10.995Z,8.10
2019-02-24T11:23:41.225Z,8.20
2019-02-24T11:26:11.661Z,8.20
2019-02-24T11:28:41.634Z,8.30
2019-02-24T11:31:11.908Z,8.30
2019-02-24T11:33:43.835Z,8.40
2019-02-24T11:36:13.732Z,8.50
2019-02-24T11:38:43.612Z,8.70
2019-02-24T11:41:13.778Z,8.70
2019-02-24T11:43:43.820Z,8.80
2019-02-24T11:46:15.471Z,8.90
2019-02-24T11:48:45.551Z,9.00
2019-02-24T11:51:15.769Z,9.00
2019-02-24T11:53:45.721Z,9.10
2019-02-24T11:56:15.980Z,9.10
2019-02-24T11:58:46.608Z,9.20
2019-02-24T12:01:17.164Z,9.20
2019-02-24T12:03:47.525Z,9.30
2019-02-24T12:06:17.687Z,9.30
2019-02-24T12:08:48.080Z,9.30
2019-02-24T12:11:18.548Z,9.40
2019-02-24T12:13:48.479Z,9.50
2019-02-24T12:16:19.038Z,9.50
2019-02-24T12:18:48.986Z,9.60
2019-02-24T12:21:19.710Z,9.50
2019-02-24T12:23:49.912Z,9.60
2019-02-24T12:26:20.192Z,9.70
2019-02-24T12:28:50.278Z,9.80
2019-02-24T12:31:20.207Z,9.90
2019-02-24T12:33:50.737Z,10.00
2019-02-24T12:36:20.845Z,10.10
2019-02-24T12:38:51.301Z,10.20
2019-02-24T12:41:21.295Z,10.30
2019-02-24T12:43:51.525Z,10.20
2019-02-24T12:46:21.582Z,10.30
2019-02-24T12:48:51.591Z,10.30
2019-02-24T12:51:21.676Z,10.30
2019-02-24T12:53:52.054Z,10.30
2019-02-24T12:56:22.227Z,10.40
2019-02-24T12:58:53.537Z,10.50
2019-02-24T13:01:23.830Z,10.60
2019-02-24T13:03:54.304Z,10.60
2019-02-24T13:06:24.513Z,10.70
2019-02-24T13:08:54.709Z,10.70
2019-02-24T13:11:24.948Z,10.80
2019-02-24T13:13:55.126Z,10.90
2019-02-24T13:16:25.424Z,10.90
2019-02-24T13:18:55.571Z,11.00
2019-02-24T13:21:25.732Z,11.00
2019-02-24T13:23:55.676Z,10.90
2019-02-24T13:26:25.675Z,11.00
2019-02-24T13:28:55.825Z,11.00
2019-02-24T13:31:26.216Z,11.10
2019-02-24T13:33:56.733Z,11.10
2019-02-24T13:36:27.354Z,11.10
2019-02-24T13:38:58.352Z,11.10
2019-02-24T13:41:28.957Z,11.10
2019-02-24T13:43:59.264Z,11.10
2019-02-24T13:46:31.881Z,11.20
2019-02-24T13:49:02.127Z,11.20
2019-02-24T13:51:32.232Z,11.30
2019-02-24T13:54:04.207Z,11.30
2019-02-24T13:56:36.069Z,11.40
2019-02-24T13:59:21.894Z,11.40
2019-02-24T14:01:52.233Z,11.40
2019-02-24T14:04:22.609Z,11.50
2019-02-24T14:06:56.551Z,11.50
2019-02-24T14:09:27.353Z,11.60
2019-02-24T14:11:57.432Z,11.60
2019-02-24T14:14:27.886Z,11.60
2019-02-24T14:16:58.531Z,11.50
2019-02-24T14:19:28.710Z,11.50
2019-02-24T14:22:00.565Z,11.60
2019-02-24T14:24:31.064Z,11.60
2019-02-24T14:27:01.265Z,11.60
2019-02-24T14:29:31.295Z,11.60
2019-02-24T14:32:01.670Z,11.70
2019-02-24T14:34:32.097Z,11.70
2019-02-24T14:37:02.631Z,11.70
2019-02-24T14:39:32.814Z,11.60
2019-02-24T14:42:09.341Z,11.50
2019-02-24T14:44:41.934Z,11.60
2019-02-24T14:47:13.427Z,11.60
2019-02-24T14:49:45.852Z,11.70
2019-02-24T14:52:16.145Z,11.60
2019-02-24T14:54:46.493Z,11.60
2019-02-24T14:57:20.147Z,11.50
2019-02-24T14:59:50.298Z,11.60
2019-02-24T15:02:22.981Z,11.50
2019-02-24T15:04:53.784Z,11.60
2019-02-24T15:07:24.099Z,11.60
2019-02-24T15:09:54.643Z,11.60
2019-02-24T15:12:24.880Z,11.70
2019-02-24T15:14:58.752Z,11.80
2019-02-24T15:17:31.004Z,11.80
2019-02-24T15:20:01.495Z,11.80
2019-02-24T15:22:31.704Z,11.70
2019-02-24T15:25:07.158Z,11.80
2019-02-24T15:27:37.365Z,11.80
2019-02-24T15:30:11.112Z,11.80
2019-02-24T15:32:51.147Z,11.90
2019-02-24T15:35:15.321Z,11.90
2019-02-24T15:40:42.947Z,12.10
2019-02-24T15:43:15.107Z,12.10
2019-02-24T15:45:45.429Z,12.10
2019-02-24T15:48:15.486Z,12.10
2019-02-24T15:50:45.666Z,12.00
2019-02-24T15:53:15.808Z,11.90
2019-02-24T15:55:45.989Z,11.80
2019-02-24T15:58:17.818Z,11.80
2019-02-24T16:00:50.903Z,11.70
2019-02-24T16:03:20.895Z,11.70
2019-02-24T16:05:53.552Z,11.70
2019-02-24T16:08:31.081Z,11.60
2019-02-24T16:11:01.365Z,11.60
2019-02-24T16:13:32.045Z,11.50
2019-02-24T16:16:02.669Z,11.40
2019-02-24T16:18:34.465Z,11.50
2019-02-24T16:21:04.727Z,11.40
2019-02-24T16:23:34.907Z,11.30
2019-02-24T16:26:05.298Z,11.30
2019-02-24T16:28:35.395Z,11.10
2019-02-24T16:31:05.709Z,11.00
2019-02-24T16:33:36.065Z,10.90
2019-02-24T16:36:08.655Z,10.70
2019-02-24T16:38:38.923Z,10.70
2019-02-24T16:41:09.514Z,10.70
2019-02-24T16:43:39.736Z,10.70
2019-02-24T16:46:10.380Z,10.50
2019-02-24T16:48:40.505Z,10.40
2019-02-24T16:51:10.706Z,10.20
2019-02-24T16:53:40.986Z,10.20
2019-02-24T16:56:11.388Z,10.20
2019-02-24T16:58:41.652Z,10.30
2019-02-24T17:01:12.293Z,10.10
2019-02-24T17:03:43.904Z,10.00
2019-02-24T17:06:14.097Z,9.90
2019-02-24T17:08:52.101Z,10.00
2019-02-24T17:11:19.187Z,10.00
2019-02-24T17:13:52.233Z,9.90
2019-02-24T17:16:22.429Z,9.90
2019-02-24T17:18:52.919Z,9.90
2019-02-24T17:21:27.086Z,9.90
2019-02-24T17:23:57.157Z,10.00
2019-02-24T17:26:28.851Z,10.00
2019-02-24T17:29:02.438Z,10.10
2019-02-24T17:31:40.858Z,10.20
2019-02-24T17:34:10.890Z,10.30
2019-02-24T17:36:44.980Z,10.30
2019-02-24T17:39:30.785Z,10.30
2019-02-24T17:42:09.073Z,10.20
2019-02-24T17:44:39.223Z,10.10
2019-02-24T17:47:09.344Z,10.00
2019-02-24T17:49:48.438Z,9.90
2019-02-24T17:52:25.087Z,9.90
2019-02-24T17:55:05.654Z,9.70
2019-02-24T17:57:33.339Z,9.50
2019-02-24T18:00:23.845Z,9.30
2019-02-24T18:03:05.562Z,9.20
2019-02-24T18:06:02.532Z,9.20
2019-02-24T18:08:14.000Z,9.20
2019-02-24T18:11:19.286Z,9.40
2019-02-24T18:14:24.322Z,9.40
2019-02-24T18:17:05.335Z,9.50
2019-02-24T18:23:20.142Z,9.70
2019-02-24T18:26:04.997Z,9.70
2019-02-24T18:28:58.780Z,9.60
2019-02-24T18:32:02.069Z,9.60
2019-02-24T18:34:43.651Z,9.60
2019-02-24T19:38:17.009Z,9.00
2019-02-24T20:33:55.430Z,7.10
2019-02-24T20:36:30.527Z,7.20
2019-02-24T20:39:01.783Z,7.20
2019-02-24T20:41:36.328Z,7.10
2019-02-24T20:44:26.659Z,7.10
2019-02-24T20:46:57.074Z,7.00
2019-02-24T20:49:27.815Z,6.90
2019-02-24T20:51:58.157Z,7.00
2019-02-24T20:54:28.460Z,6.90
2019-02-24T20:56:58.619Z,6.90
2019-02-24T20:59:28.648Z,6.90
2019-02-24T21:01:58.888Z,6.80
2019-02-24T21:04:32.103Z,6.80
2019-02-24T21:07:07.819Z,6.80
2019-02-24T21:09:38.119Z,6.70
2019-02-24T21:12:08.214Z,6.70
2019-02-24T21:14:38.636Z,6.70
2019-02-24T21:17:10.198Z,6.60
2019-02-24T21:19:40.108Z,6.50
2019-02-24T21:22:10.105Z,6.60
2019-02-24T21:24:40.157Z,6.70
2019-02-24T21:27:10.190Z,6.70
2019-02-24T21:29:46.604Z,6.70
2019-02-24T21:32:20.211Z,6.70
2019-02-24T21:34:50.363Z,6.70
2019-02-24T21:37:21.171Z,6.50
2019-02-24T21:39:51.588Z,6.50
2019-02-24T21:42:21.753Z,6.40
2019-02-24T21:44:52.024Z,6.30
2019-02-24T21:47:22.458Z,6.20
2019-02-24T21:49:53.314Z,6.00
2019-02-24T21:52:23.553Z,5.90
2019-02-24T21:54:56.127Z,5.90
2019-02-24T21:57:26.126Z,5.90
2019-02-24T21:59:56.258Z,6.00
2019-02-24T22:02:26.361Z,5.90
2019-02-24T22:04:59.135Z,6.00
2019-02-24T22:07:29.285Z,6.20
2019-02-24T22:09:59.547Z,6.30
2019-02-24T22:12:31.224Z,6.30
2019-02-24T22:15:01.406Z,6.40
2019-02-24T22:17:36.608Z,6.50
2019-02-24T22:20:08.611Z,6.50
2019-02-24T22:22:42.291Z,6.60
2019-02-24T22:25:13.107Z,6.50
2019-02-24T22:27:45.265Z,6.40
2019-02-24T22:30:16.322Z,6.20
2019-02-24T22:32:46.640Z,6.10
2019-02-24T22:35:16.754Z,5.80
2019-02-24T22:37:46.858Z,5.60
2019-02-24T22:40:17.378Z,5.40
2019-02-24T22:42:47.775Z,5.20
2019-02-24T22:45:22.339Z,5.00
2019-02-24T22:47:52.386Z,5.00
2019-02-24T22:50:22.765Z,4.80
2019-02-24T22:52:52.779Z,4.70
2019-02-24T22:55:22.869Z,4.60
2019-02-24T22:57:52.954Z,4.60
2019-02-24T23:00:32.374Z,4.60
2019-02-24T23:03:02.692Z,4.50
2019-02-24T23:05:35.420Z,4.60
2019-02-24T23:08:05.561Z,4.50
2019-02-24T23:10:38.607Z,4.50
2019-02-24T23:13:10.460Z,4.40
2019-02-24T23:15:40.969Z,4.30
2019-02-24T23:18:11.103Z,4.40
2019-02-24T23:20:43.194Z,4.50
2019-02-24T23:23:13.347Z,4.40
2019-02-24T23:25:44.148Z,4.20
2019-02-24T23:28:14.286Z,4.10
2019-02-24T23:30:44.309Z,4.10
2019-02-24T23:33:14.298Z,4.10
2019-02-24T23:35:46.491Z,4.10
2019-02-24T23:38:16.142Z,4.20
2019-02-24T23:40:53.864Z,4.30
2019-02-24T23:43:26.081Z,4.40
2019-02-24T23:45:55.914Z,4.50
2019-02-24T23:48:26.462Z,4.60
2019-02-24T23:50:56.738Z,4.50
2019-02-24T23:53:26.462Z,4.50
2019-02-24T23:55:56.788Z,4.40
2019-02-24T23:58:27.037Z,4.30
